createdAt,value
2023-01-10T00:01:44.178Z,4.46
2023-01-10T00:06:51.934Z,4.36
2023-01-10T00:12:17.100Z,4.25
2023-01-10T00:17:24.502Z,4.14
2023-01-10T00:22:31.803Z,3.99
2023-01-10T00:27:39.573Z,3.89
2023-01-10T00:32:47.839Z,3.83
2023-01-10T00:38:01.572Z,3.83
2023-01-10T00:43:27.747Z,3.90
2023-01-10T00:48:35.153Z,3.93
2023-01-10T00:53:42.408Z,3.95
2023-01-10T00:58:49.612Z,3.98
2023-01-10T01:03:56.830Z,4.07
2023-01-10T01:09:03.981Z,4.17
2023-01-10T01:14:11.345Z,4.25
2023-01-10T01:19:18.586Z,4.31
2023-01-10T01:24:25.764Z,4.34
2023-01-10T01:29:43.005Z,4.29
2023-01-10T01:34:50.912Z,4.24
2023-01-10T01:40:01.125Z,4.24
2023-01-10T01:45:39.339Z,4.27
2023-01-10T01:50:51.499Z,4.34
2023-01-10T01:56:02.712Z,4.39
2023-01-10T02:01:10.994Z,4.37
2023-01-10T02:06:19.918Z,4.32
2023-01-10T02:11:27.107Z,4.30
2023-01-10T02:16:34.316Z,4.33
2023-01-10T02:22:06.812Z,4.37
2023-01-10T02:27:28.375Z,4.39
2023-01-10T02:32:50.527Z,4.36
2023-01-10T02:38:06.368Z,4.36
2023-01-10T02:43:19.655Z,4.40
2023-01-10T02:48:26.938Z,4.47
2023-01-10T02:53:38.648Z,4.50
2023-01-10T02:59:09.518Z,4.49
2023-01-10T03:04:28.139Z,4.40
2023-01-10T03:09:41.587Z,4.31
2023-01-10T03:14:50.665Z,4.30
2023-01-10T03:20:02.194Z,4.36
2023-01-10T03:25:12.904Z,4.42
2023-01-10T03:30:27.825Z,4.44
2023-01-10T03:35:44.288Z,4.42
2023-01-10T03:40:58.035Z,4.40
2023-01-10T03:46:11.961Z,4.38
2023-01-10T03:51:21.430Z,4.39
2023-01-10T03:56:28.630Z,4.41
2023-01-10T04:01:35.977Z,4.40
2023-01-10T04:06:43.372Z,4.36
2023-01-10T04:11:50.675Z,4.29
2023-01-10T04:16:57.975Z,4.20
2023-01-10T04:22:05.901Z,4.16
2023-01-10T04:27:13.237Z,4.03
2023-01-10T04:32:20.447Z,3.88
2023-01-10T04:37:27.756Z,3.77
2023-01-10T04:42:35.130Z,3.77
2023-01-10T04:47:42.490Z,3.85
2023-01-10T04:52:49.816Z,3.94
2023-01-10T04:57:57.640Z,3.95
2023-01-10T05:03:06.929Z,3.86
2023-01-10T05:08:14.215Z,3.82
2023-01-10T05:13:21.599Z,3.83
2023-01-10T05:18:30.457Z,3.87
2023-01-10T05:23:37.978Z,3.91
2023-01-10T05:28:46.145Z,3.93
2023-01-10T05:33:54.288Z,3.87
2023-01-10T05:38:59.996Z,3.73
2023-01-10T05:44:08.067Z,3.62
2023-01-10T05:49:15.478Z,3.60
2023-01-10T05:54:22.904Z,3.64
2023-01-10T05:59:30.202Z,3.68
2023-01-10T06:04:39.635Z,3.65
2023-01-10T06:09:46.897Z,3.56
2023-01-10T06:14:54.266Z,3.48
2023-01-10T06:20:01.590Z,3.46
2023-01-10T06:25:14.913Z,3.50
2023-01-10T06:30:22.829Z,3.52
2023-01-10T06:35:30.600Z,3.43
2023-01-10T06:40:38.116Z,3.38
2023-01-10T06:45:45.514Z,3.30
2023-01-10T06:50:54.325Z,3.24
2023-01-10T06:56:06.069Z,3.32
2023-01-10T07:01:19.309Z,3.45
2023-01-10T07:06:26.700Z,3.52
2023-01-10T07:11:36.971Z,3.55
2023-01-10T07:16:44.250Z,3.53
2023-01-10T07:21:51.453Z,3.48
2023-01-10T07:27:00.296Z,3.50
2023-01-10T07:32:09.475Z,3.57
2023-01-10T07:37:15.172Z,3.64
2023-01-10T07:42:22.377Z,3.65
2023-01-10T07:47:29.577Z,3.58
2023-01-10T07:52:39.663Z,3.46
2023-01-10T07:57:47.208Z,3.34
2023-01-10T08:02:57.732Z,3.28
2023-01-10T08:08:09.396Z,3.29
2023-01-10T08:13:19.456Z,3.37
2023-01-10T08:18:28.015Z,3.37
2023-01-10T08:23:35.331Z,3.28
2023-01-10T08:28:44.135Z,3.22
2023-01-10T08:33:51.448Z,3.29
2023-01-10T08:39:00.842Z,3.44
2023-01-10T08:44:08.770Z,3.63
2023-01-10T08:49:18.469Z,3.78
2023-01-10T08:54:30.361Z,3.86
2023-01-10T08:59:40.263Z,3.81
2023-01-10T09:04:49.683Z,3.77
2023-01-10T09:10:13.235Z,3.78
2023-01-10T09:15:23.545Z,3.82
2023-01-10T09:20:52.755Z,3.95
2023-01-10T09:26:05.877Z,4.15
2023-01-10T09:31:13.291Z,4.29
2023-01-10T09:36:20.929Z,4.34
2023-01-10T09:42:07.944Z,4.33
2023-01-10T09:47:26.086Z,4.35
2023-01-10T09:52:38.714Z,4.46
2023-01-10T09:57:49.408Z,4.59
2023-01-10T10:03:02.298Z,4.71
2023-01-10T10:15:10.963Z,4.81
2023-01-10T10:20:32.134Z,4.87
2023-01-10T10:25:57.393Z,4.96
2023-01-10T10:31:17.601Z,5.06
2023-01-10T10:36:47.214Z,5.16
2023-01-10T10:42:14.892Z,5.22
2023-01-10T10:47:37.731Z,5.23
2023-01-10T10:52:50.236Z,5.25
2023-01-10T10:58:00.818Z,5.30
2023-01-10T11:03:24.826Z,5.35
2023-01-10T11:08:33.379Z,5.42
2023-01-10T11:13:50.305Z,5.49
2023-01-10T11:19:22.398Z,5.55
2023-01-10T11:24:35.964Z,5.56
2023-01-10T11:29:49.487Z,5.55
2023-01-10T11:42:35.982Z,5.65
2023-01-10T11:47:48.170Z,5.70
2023-01-10T11:53:10.149Z,5.68
2023-01-10T11:58:21.159Z,5.64
2023-01-10T12:03:37.519Z,5.61
2023-01-10T12:08:45.401Z,5.63
2023-01-10T12:13:58.086Z,5.71
2023-01-10T12:19:08.732Z,5.77
2023-01-10T12:24:24.144Z,5.80
2023-01-10T12:29:36.110Z,5.80
2023-01-10T12:34:50.425Z,5.77
2023-01-10T12:40:11.613Z,5.77
2023-01-10T12:45:27.031Z,5.80
2023-01-10T12:57:58.996Z,5.76
2023-01-10T13:03:15.333Z,5.70
2023-01-10T13:08:34.451Z,5.64
2023-01-10T13:14:32.002Z,5.67
2023-01-10T13:20:07.919Z,5.74
2023-01-10T13:25:28.491Z,5.79
2023-01-10T13:30:57.708Z,5.79
2023-01-10T13:36:22.006Z,5.75
2023-01-10T13:42:31.095Z,5.72
2023-01-10T13:48:08.945Z,5.77
2023-01-10T13:53:48.427Z,5.86
2023-01-10T13:59:13.286Z,5.96
2023-01-10T14:04:26.803Z,6.00
2023-01-10T14:09:47.788Z,5.97
2023-01-10T14:15:26.072Z,5.96
2023-01-10T14:20:36.610Z,5.96
2023-01-10T14:25:45.112Z,6.01
2023-01-10T14:31:04.548Z,6.03
2023-01-10T14:36:18.837Z,6.02
2023-01-10T14:41:35.994Z,5.97
2023-01-10T14:46:52.844Z,5.93
2023-01-10T14:52:19.527Z,5.90
2023-01-10T14:57:27.412Z,5.93
2023-01-10T15:02:37.985Z,5.97
2023-01-10T15:07:46.282Z,5.98
2023-01-10T15:12:56.067Z,5.95
2023-01-10T15:18:08.317Z,5.93
2023-01-10T15:23:17.466Z,5.93
2023-01-10T15:28:25.139Z,5.96
2023-01-10T15:33:36.141Z,5.93
2023-01-10T15:38:49.068Z,5.84
2023-01-10T15:43:56.268Z,5.75
2023-01-10T15:49:05.410Z,5.70
2023-01-10T15:54:32.352Z,5.72
2023-01-10T15:59:44.904Z,5.75
2023-01-10T16:04:56.064Z,5.73
2023-01-10T16:10:07.296Z,5.68
2023-01-10T16:15:20.543Z,5.62
2023-01-10T16:20:30.775Z,5.58
2023-01-10T16:25:42.918Z,5.58
2023-01-10T16:30:50.478Z,5.58
2023-01-10T16:35:59.240Z,5.53
2023-01-10T16:41:20.988Z,5.47
2023-01-10T16:46:28.167Z,5.46
2023-01-10T16:51:40.301Z,5.51
2023-01-10T16:56:48.048Z,5.55
2023-01-10T17:01:57.407Z,5.51
2023-01-10T17:07:05.085Z,5.40
2023-01-10T17:12:21.928Z,5.29
2023-01-10T17:17:30.476Z,5.26
2023-01-10T17:22:47.108Z,5.32
2023-01-10T17:27:56.825Z,5.40
2023-01-10T17:33:05.632Z,5.43
2023-01-10T17:38:15.495Z,5.41
2023-01-10T17:43:23.842Z,5.35
2023-01-10T17:48:31.397Z,5.30
2023-01-10T17:53:43.509Z,5.30
2023-01-10T17:58:53.797Z,5.28
2023-01-10T18:04:01.143Z,5.21
2023-01-10T18:09:08.546Z,5.20
2023-01-10T18:14:33.575Z,5.22
2023-01-10T18:19:42.739Z,5.29
2023-01-10T18:24:51.891Z,5.34
2023-01-10T18:29:59.305Z,5.33
2023-01-10T18:35:07.317Z,5.26
2023-01-10T18:40:13.858Z,5.21
2023-01-10T18:45:23.849Z,5.21
2023-01-10T18:50:33.411Z,5.25
2023-01-10T18:55:53.314Z,5.30
2023-01-10T19:01:05.280Z,5.32
2023-01-10T19:06:16.105Z,5.28
2023-01-10T19:11:23.681Z,5.21
2023-01-10T19:16:34.111Z,5.18
2023-01-10T19:21:42.289Z,5.18
2023-01-10T19:26:49.607Z,5.23
2023-01-10T19:31:57.124Z,5.27
2023-01-10T19:37:10.738Z,5.28
2023-01-10T19:42:18.010Z,5.24
2023-01-10T19:47:27.617Z,5.14
2023-01-10T19:52:34.916Z,5.09
2023-01-10T19:57:45.643Z,5.06
2023-01-10T20:02:52.921Z,5.07
2023-01-10T20:08:00.182Z,5.09
2023-01-10T20:13:10.197Z,5.10
2023-01-10T20:18:17.525Z,5.08
2023-01-10T20:23:25.100Z,5.04
2023-01-10T20:28:32.469Z,5.05
2023-01-10T20:33:40.010Z,5.08
2023-01-10T20:38:47.895Z,5.08
2023-01-10T20:43:56.546Z,5.04
2023-01-10T20:49:04.188Z,4.96
2023-01-10T20:54:13.185Z,4.94
2023-01-10T20:59:21.007Z,4.98
2023-01-10T21:04:28.215Z,4.99
2023-01-10T21:09:37.384Z,4.97
2023-01-10T21:14:44.964Z,4.95
2023-01-10T21:19:52.587Z,4.95
2023-01-10T21:24:59.797Z,4.99
2023-01-10T21:30:09.262Z,5.05
2023-01-10T21:35:16.849Z,5.05
2023-01-10T21:40:24.063Z,5.01
2023-01-10T21:45:33.115Z,4.93
2023-01-10T21:50:42.935Z,4.88
2023-01-10T21:55:50.283Z,4.88
2023-01-10T22:01:03.168Z,4.94
2023-01-10T22:06:10.943Z,5.00
2023-01-10T22:11:18.232Z,5.00
2023-01-10T22:16:25.702Z,4.96
2023-01-10T22:21:32.920Z,4.92
2023-01-10T22:26:40.279Z,4.91
2023-01-10T22:31:48.312Z,4.90
2023-01-10T22:36:55.675Z,4.87
2023-01-10T22:42:02.843Z,4.83
2023-01-10T22:47:10.358Z,4.68
2023-01-10T22:52:17.498Z,4.53
2023-01-10T22:57:25.199Z,4.49
2023-01-10T23:02:33.259Z,4.51
2023-01-10T23:07:40.489Z,4.57
2023-01-10T23:12:47.772Z,4.64
2023-01-10T23:17:54.941Z,4.67
2023-01-10T23:23:02.342Z,4.68
2023-01-10T23:28:09.478Z,4.61
2023-01-10T23:33:17.239Z,4.51
2023-01-10T23:38:24.543Z,4.47
2023-01-10T23:43:31.806Z,4.42
2023-01-10T23:48:40.460Z,4.35
2023-01-10T23:53:47.766Z,4.35
2023-01-10T23:58:55.412Z,4.39
